HWP weather

World Plaza Heliport
Cuajimalpa, Distrito Federal, Mexico

Public forecast

Using degrees Celsius for public forecast. Weather courtesy of forecast.io.

Closest aviation weather report (METAR) to World Plaza Heliport

Closest report is Licenciado Benito Juarez International Airport, 12.2 nm (22.6 km) ENE. Retrieved 2019/10/23 19:48 UTC (19 minutes ago):

MMMX 231948Z 36007KT 6SM SCT025TCU 22/08 A3021 NOSIG RMK 8/200 HZY AC

Closest aviation forecast (TAF) to World Plaza Heliport

Closest forecast is Licenciado Benito Juarez International Airport, 12.2 nm (22.6 km) ENE. Retrieved 2019/10/23 18:45 UTC (1 hour ago):

TAF MMMX 231643Z 2318/2424 03015KT 5SM HZ BKN020 BKN100 TX23/2320Z TN14/2412Z FM232100 06015KT P6SM BKN020CB OVC100 TEMPO 2323/2403 5SM TSRA BECMG 2404/2405 00000KT 6SM -RA FM241000 00000KT 4SM HZ OVC020 FM241600 02010KT 5SM HZ SCT010 BKN090